LIRP/PSA METAR and TAF weather

Enter ICAO airport designator
Station Type Date Time Source
LIRP METAR 2019/08/22 20:45 UTC NOAA

LIRP 222045Z 12009KT 9999 SCT060 25/20 Q1018 NOSIG


Station Type Date Time Source
LIRP Decoded METAR 2019/08/22 20:45 UTC NOAA

Station name not available
Aug 22, 2019 - 04:45 PM EDT / 2019.08.22 2045 UTC
Wind: from the ESE (120 degrees) at 10 MPH (9 KT):0
Visibility: greater than 7 mile(s):0
Sky conditions: partly cloudy
Temperature: 77 F (25 C)
Dew Point: 68 F (20 C)
Relative Humidity: 73%
Pressure (altimeter): 30.06 in. Hg (1018 hPa)
ob: LIRP 222045Z 12009KT 9999 SCT060 25/20 Q1018 NOSIG
cycle: 21

Station Type Date Time Source
LIRP TAF 2019/08/22 18:21 UTC NOAA

TAF LIRP 221700Z 2218/2318 09005KT 9999 FEW030
TEMPO 2218/2315 5000 SHRA FEW025CB SCT035 PROB40
TEMPO 2221/2306 3000 TSRA FEW020CB BKN030
BECMG 2300/2302 VRB05KT
BECMG 2312/2314 01005KT

Example: see airport list